Missanabie, Canada
Current Conditions -  °F | °C
As of 8:00 PM on Monday 20 Oct 2014 (Local Time) from CYXZ Reporting Station
Overcast Overcast  
Wind Chill: 31°   Ceiling: 1000
Heat Index: 39°   Visibility: 15mi
Dew Point: 37°   Wind: 15mph
Humidity: 93%   Direction: 40°NE
Pressure: 29.96"   Gusts: 21mph
Location:  48.3°N, 84.08°W
Report Text: CYXZ 210000Z 04013G18KT 350V060 15SM OVC010 04/03 A2996 RMK SC8 LASTOBS/NEXT211100UTC SLP156
Loading
Personal Weather Stations






























Interactive Weather Map
Tropical Storm Tracking
New forecast layout! Learn more

10-Day Weather Forecast

Advertisements
Track Severe Weather on mobile